24th November 2019 | Maryborough, Victoria, Australia

Energy Breakthrough (2019)

HPV Primary - Practice: Mixed

Pos Name School Category (Pos) Laps Fastest Average Slowest
29 AVOCA CIRCUIT (#17) Avoca Primary School A1 (1) 26 00:02:02 00:03:10 00:04:52
38 COSMOS CONQUERORS (#35) Kingswood Primary School A2 - Penalty (1) 27 00:02:05 00:03:15 00:05:29
1 NITRO (#73) Derinya Primary School A2 (1) 28 00:01:40 00:02:44 00:07:59
2 WIMMERA VISPER (#22) Horsham West and Haven Primary School A2 (2) 36 00:01:41 00:02:27 00:04:40
40 GONZALES (#6) Talbot Primary School A1 (2) 28 00:02:06 00:03:07 00:09:59
43 OAK TREE RACING 1 (#37) Avenel Primary School A1 (3) 33 00:02:07 00:02:35 00:05:10
3 ECORUSH (#7) White Hills Primary School A2 (3) 29 00:01:43 00:03:01 00:10:12
44 OAK TREE RACING 2 (#38) Avenel Primary School A1 (4) 30 00:02:09 00:02:45 00:05:29
4 DOCTOR DOCTOR (#86) Marist College Bendigo A2 (4) 30 00:01:45 00:02:54 00:04:26
49 DYNAMITE (#46) Clunes Primary School A1 (5) 24 00:02:10 00:03:33 00:05:52
5 GHOST (#79) Golden Square Primary School A2 (5) 24 00:01:47 00:03:21 00:12:36
56 SPEEDY (#5) Talbot Primary School A1 (6) 26 00:02:13 00:03:20 00:08:24
6 WILLMOTT PARK WARRIORS (#25) Willmott Park Primary School A2 (6) 21 00:01:48 00:04:08 00:35:39
59 SMINGLEWOOD (#85) St Mary'S Primary School A1 (7) 5 00:02:14 00:02:25 00:02:34
7 PHOENIX (#381) Jells Park Primary School A2 (7) 10 00:01:48 00:06:41 00:45:33
73 TNT (#65) Lockwood Primary School A1 (8) 25 00:02:20 00:03:21 00:05:57
8 MECLICIOUS SISTA (#1) Maryborough Education Centre A2 (8) 38 00:01:49 00:02:20 00:03:41
9 GRAND SLAM (#13) Mornington Primary School A2 (9) 29 00:01:49 00:02:59 00:04:45
84 GOLD LIGHTNING (#59) Garfield Primary A1 (9) 20 00:02:33 00:04:08 00:07:47
88 DYNAMITE (#64) Lockwood Primary School A1 (10) 17 00:02:53 00:04:48 00:07:53
10 LAURIMAR GRIFFINS (#28) Laurimar Primary School A2 (10) 30 00:01:50 00:02:45 00:05:01
11 BLITZ (#74) Derinya Primary School A2 (11) 32 00:01:50 00:02:34 00:04:31
12 FLAMINGOS (#373) Derinya Primary School A2 (12) 30 00:01:52 00:02:40 00:04:48
13 TORPECO (#8) White Hills Primary School A2 (13) 29 00:01:53 00:02:43 00:08:23
14 SHAZZAM (#81) Jells Park Primary School A2 (14) 30 00:01:53 00:02:52 00:09:11
15 MERCURY (#15) Carisbrook Primary School A2 (15) 29 00:01:54 00:02:55 00:05:04
16 TOOT TOOT (#60) Tootgarook Primary School A2 (16) 35 00:01:54 00:02:22 00:04:31
17 GT (#14) Mornington Primary School A2 (17) 24 00:01:54 00:03:21 00:07:48
18 BEWARE (#71) Bonbeach Primary School A2 (18) 34 00:01:54 00:02:31 00:05:35
19 JUNIOR (#16) Carisbrook Primary School A2 (19) 26 00:01:55 00:03:14 00:06:32
20 PEARCEDALE PIRANHAS 2.0 (#34) Pearcedale Primary School A2 (20) 33 00:01:56 00:02:38 00:04:23
21 CRUISIN CREW (#43) Lloyd Street Primary School A2 (21) 31 00:01:56 00:02:49 00:05:31
22 JOHN VALVES (#49) Caledonian Primary School A2 (22) 22 00:01:59 00:03:47 00:08:51
23 THE SPIRIT OF DIAMOND CREEK (#24) Diamond Creek Primary School A2 (23) 33 00:02:00 00:02:38 00:05:05
24 LICKETY SPLIT (#32) Kororoit Creek Primary School A2 (24) 27 00:02:00 00:02:59 00:04:48
25 HAILEYBURY HAILSTORM (#9) Haileybury College A2 (25) 28 00:02:00 00:03:01 00:05:23
26 KENNINGTON GREEN (#67) Kennington Primary School A2 (26) 26 00:02:00 00:03:11 00:04:54
27 FLAMIN (#36) Terang College A2 (27) 24 00:02:01 00:03:29 00:06:06
28 FIRE STARS (#61) Tootgarook Primary School A2 (28) 29 00:02:01 00:03:00 00:05:00
30 CREEKERS (#31) Kororoit Creek Primary School A2 (29) 30 00:02:02 00:02:57 00:04:39
31 WILLMOTT PARK WIZARDS (#26) Willmott Park Primary School A2 (30) 29 00:02:03 00:02:55 00:10:36
32 MECLICIOUS (#2) Maryborough Education Centre A2 (31) 32 00:02:03 00:02:46 00:04:33
33 OSCAR (#44) Berwick Primary School A2 (32) 29 00:02:04 00:02:57 00:05:49
34 VANQUISH (#82) Jells Park Primary School A2 (33) 29 00:02:04 00:02:57 00:05:20
35 KATCHMI JNR (#29) Morwell Park Primary School A2 (34) 21 00:02:04 00:04:04 00:10:08
36 LAURIMAR PHOENIX (#327) Laurimar Primary School A2 (35) 29 00:02:05 00:02:49 00:04:17
37 KILDARE MAY (#88) St. Augustine's Primary School A2 (36) 26 00:02:05 00:03:14 00:05:48
39 PACMAN (#80) Golden Square Primary School A2 (37) 22 00:02:06 00:03:21 00:05:03
41 CWPS WOLVES (#57) Cranbourne West Primary School A2 (38) 23 00:02:07 00:03:43 00:09:33
42 KILDARE BARBARA (#87) St. Augustine's Primary School A2 (39) 28 00:02:07 00:03:06 00:05:42
45 HR ROCKETS - FLAMES (#84) Holy Rosary Primary School White Hills A2 (40) 19 00:02:10 00:04:14 00:23:34
46 PEARCEDALE PIRANHAS (#33) Pearcedale Primary School A2 (41) 30 00:02:10 00:02:49 00:04:18
47 ROAD RUNNER (#41) Dingley Primary School A2 (42) 26 00:02:10 00:03:15 00:04:44
48 THUNDER (#75) Niddrie Primary School A2 (43) 24 00:02:10 00:03:24 00:07:07
50 LIGHTNING (#76) Niddrie Primary School A2 (44) 28 00:02:11 00:03:06 00:05:07
51 CWPS PUPS (#58) Cranbourne West Primary School A2 (45) 24 00:02:11 00:03:33 00:06:28
52 GECKO 1 (#39) Seymour College A2 (46) 24 00:02:12 00:03:18 00:05:02
53 LAURIMAR DRAGONS (#27) Laurimar Primary School A2 (47) 26 00:02:12 00:03:11 00:06:04
54 SPEEDY GONZALES (#42) Dingley Primary School A2 (48) 22 00:02:12 00:03:41 00:14:37
55 BACK OFF (#72) Bonbeach Primary School A2 (49) 29 00:02:13 00:02:58 00:04:50
57 ICE (#4) Buninyong Primary School A2 (50) 27 00:02:14 00:03:03 00:05:59
58 FIRE (#3) Buninyong Primary School A2 (51) 26 00:02:14 00:03:08 00:04:44
60 WIMMERA RAMPAGE (#23) Horsham West and Haven Primary School A2 (52) 23 00:02:15 00:02:59 00:04:58
61 ELMO (#344) Berwick Primary School A2 (53) 24 00:02:16 00:03:34 00:06:17
62 HURRICANE HEIGHTS (#52) Frankston Heights Primary School A2 (54) 24 00:02:16 00:03:34 00:06:19
63 HAILEYS COMET (#10) Haileybury College A2 (55) 24 00:02:16 00:03:31 00:05:10
64 HAILEYBURY HORNETS (#309) Haileybury College A2 (56) 26 00:02:17 00:03:17 00:10:40
65 LEGO MASTERS (#56) Lyndhurst Primary School A2 (57) 23 00:02:17 00:03:36 00:06:21
66 LUCKNOW THUNDER (#54) Lucknow Primary School A2 (58) 28 00:02:17 00:03:06 00:05:25
67 DPS EXPRESS 1 (#20) Delacombe Primary School A2 (59) 24 00:02:17 00:03:33 00:07:32
68 COOKIE (#45) Berwick Primary School A2 (60) 25 00:02:17 00:03:27 00:05:29
69 CARBON ZERO (#19) Pleasant Street Primary School A2 (61) 21 00:02:18 00:03:55 00:07:14
70 KENNINGTON YELLOW (#68) Kennington Primary School A2 (62) 26 00:02:19 00:03:13 00:04:24
71 LUCKNOW LIGHTNING (#53) Lucknow Primary School A2 (63) 27 00:02:19 00:03:04 00:04:39
72 LIGHT SPEED (#70) Mt Eliza Primary School A2 (64) 21 00:02:20 00:03:57 00:10:05
74 CARBON NADA (#18) Pleasant Street Primary School A2 (65) 19 00:02:20 00:04:16 00:06:25
75 BENTON BULLETS (#12) Benton Junior College A2 (66) 23 00:02:22 00:03:42 00:08:49
76 BENTON BANDITS (#11) Benton Junior College A2 (67) 26 00:02:23 00:03:17 00:04:41
77 MASTERCHEF (#55) Lyndhurst Primary School A2 (68) 26 00:02:25 00:03:13 00:04:38
78 BULLETPROOF (#62) Leongatha Primary School A2 (69) 19 00:02:26 00:04:20 00:07:09
79 GECKO 3 (#40) Seymour College A2 (70) 21 00:02:28 00:04:10 00:12:04
80 DPS EXPRESS 2 (#21) Delacombe Primary School A2 (71) 22 00:02:29 00:03:50 00:08:33
81 FURIOUS 8 (#51) Frankston Heights Primary School A2 (72) 24 00:02:29 00:03:24 00:05:46
82 THUNDER (#47) Canadian Lead Primary School A2 (73) 16 00:02:31 00:04:18 00:08:48
83 HR ROCKETS - HORNETS (#83) Holy Rosary Primary School White Hills A2 (74) 16 00:02:31 00:04:59 00:14:37
85 XLR8 (#63) Leongatha Primary School A2 (75) 20 00:02:34 00:04:08 00:07:25
86 PEDDERS SUSPENSION AND BRAKES (#50) Caledonian Primary School A2 (76) 20 00:02:41 00:04:01 00:07:40
87 ZERO GRAVITY (#69) Mt Eliza Primary School A2 (77) 22 00:02:50 00:03:53 00:05:56
89 FLAME THROWER (#30) Morwell Park Primary School A2 (78) 16 00:02:57 00:04:53 00:08:55
90 LIGHTNING (#48) Canadian Lead Primary School A2 (79) 12 00:02:58 00:07:04 00:20:17